sensor_id;sensor_type;location;lat;lon;timestamp;pressure;altitude;pressure_sealevel;temperature;humidity
79465;BME280;68932;47.410;8.232;2023-06-14T00:00:04;96156.37;;;16.72;37.94
79465;BME280;68932;47.410;8.232;2023-06-14T00:02:32;96158.39;;;16.67;37.67
79465;BME280;68932;47.410;8.232;2023-06-14T00:05:00;96159.67;;;16.64;37.91
79465;BME280;68932;47.410;8.232;2023-06-14T00:07:37;96163.14;;;16.59;38.26
79465;BME280;68932;47.410;8.232;2023-06-14T00:10:07;96163.29;;;16.55;38.37
79465;BME280;68932;47.410;8.232;2023-06-14T00:12:35;96160.50;;;16.51;38.34
79465;BME280;68932;47.410;8.232;2023-06-14T00:15:05;96158.92;;;16.46;38.40
79465;BME280;68932;47.410;8.232;2023-06-14T00:17:34;96156.80;;;16.40;38.40
79465;BME280;68932;47.410;8.232;2023-06-14T00:20:04;96157.80;;;16.35;38.85
79465;BME280;68932;47.410;8.232;2023-06-14T00:22:33;96159.14;;;16.31;38.66
79465;BME280;68932;47.410;8.232;2023-06-14T00:25:01;96152.89;;;16.28;38.43
79465;BME280;68932;47.410;8.232;2023-06-14T00:27:29;96151.67;;;16.26;38.47
79465;BME280;68932;47.410;8.232;2023-06-14T00:29:58;96157.30;;;16.25;38.25
79465;BME280;68932;47.410;8.232;2023-06-14T00:32:26;96151.89;;;16.22;37.62
79465;BME280;68932;47.410;8.232;2023-06-14T00:34:54;96148.86;;;16.21;37.69
79465;BME280;68932;47.410;8.232;2023-06-14T00:37:23;96149.85;;;16.20;37.94
79465;BME280;68932;47.410;8.232;2023-06-14T00:39:51;96147.33;;;16.18;37.85
79465;BME280;68932;47.410;8.232;2023-06-14T00:42:26;96146.21;;;16.17;37.67
79465;BME280;68932;47.410;8.232;2023-06-14T00:44:55;96148.39;;;16.17;37.97
79465;BME280;68932;47.410;8.232;2023-06-14T00:47:23;96143.73;;;16.15;37.91
79465;BME280;68932;47.410;8.232;2023-06-14T00:49:52;96143.85;;;16.14;37.60
79465;BME280;68932;47.410;8.232;2023-06-14T00:52:21;96149.54;;;16.12;38.05
79465;BME280;68932;47.410;8.232;2023-06-14T00:54:50;96149.30;;;16.10;38.30
79465;BME280;68932;47.410;8.232;2023-06-14T00:57:18;96146.50;;;16.06;38.42
79465;BME280;68932;47.410;8.232;2023-06-14T00:59:49;96146.95;;;16.01;38.17
79465;BME280;68932;47.410;8.232;2023-06-14T01:02:18;96143.27;;;15.97;38.25
79465;BME280;68932;47.410;8.232;2023-06-14T01:04:47;96141.27;;;15.94;38.21
79465;BME280;68932;47.410;8.232;2023-06-14T01:07:25;96141.97;;;15.91;38.53
79465;BME280;68932;47.410;8.232;2023-06-14T01:10:09;96139.73;;;15.87;38.51
79465;BME280;68932;47.410;8.232;2023-06-14T01:12:47;96141.11;;;15.82;38.76
79465;BME280;68932;47.410;8.232;2023-06-14T01:15:19;96141.41;;;15.77;38.92
79465;BME280;68932;47.410;8.232;2023-06-14T01:17:50;96143.85;;;15.74;39.06
79465;BME280;68932;47.410;8.232;2023-06-14T01:20:21;96140.70;;;15.69;39.31
79465;BME280;68932;47.410;8.232;2023-06-14T01:22:53;96141.02;;;15.65;39.42
79465;BME280;68932;47.410;8.232;2023-06-14T01:25:22;96144.95;;;15.61;39.31
79465;BME280;68932;47.410;8.232;2023-06-14T01:27:52;96140.79;;;15.58;39.37
79465;BME280;68932;47.410;8.232;2023-06-14T01:30:21;96143.55;;;15.55;39.32
79465;BME280;68932;47.410;8.232;2023-06-14T01:32:51;96146.12;;;15.52;39.50
79465;BME280;68932;47.410;8.232;2023-06-14T01:35:20;96147.17;;;15.51;39.85
79465;BME280;68932;47.410;8.232;2023-06-14T01:37:50;96146.20;;;15.48;39.90
79465;BME280;68932;47.410;8.232;2023-06-14T01:40:20;96145.05;;;15.45;39.45
79465;BME280;68932;47.410;8.232;2023-06-14T01:42:50;96140.02;;;15.43;39.89
79465;BME280;68932;47.410;8.232;2023-06-14T01:45:19;96143.23;;;15.39;39.84
79465;BME280;68932;47.410;8.232;2023-06-14T01:47:48;96139.63;;;15.36;39.79
79465;BME280;68932;47.410;8.232;2023-06-14T01:50:17;96138.67;;;15.33;40.05
79465;BME280;68932;47.410;8.232;2023-06-14T01:52:46;96139.32;;;15.32;39.99
79465;BME280;68932;47.410;8.232;2023-06-14T01:55:15;96139.13;;;15.30;39.75
79465;BME280;68932;47.410;8.232;2023-06-14T01:57:43;96136.73;;;15.28;40.32
79465;BME280;68932;47.410;8.232;2023-06-14T02:00:13;96134.53;;;15.23;40.79
79465;BME280;68932;47.410;8.232;2023-06-14T02:02:42;96137.48;;;15.18;40.87
79465;BME280;68932;47.410;8.232;2023-06-14T02:05:10;96134.63;;;15.15;40.68
79465;BME280;68932;47.410;8.232;2023-06-14T02:07:38;96138.64;;;15.12;40.69
79465;BME280;68932;47.410;8.232;2023-06-14T02:10:07;96136.15;;;15.08;40.83
79465;BME280;68932;47.410;8.232;2023-06-14T02:12:36;96133.98;;;15.04;41.11
79465;BME280;68932;47.410;8.232;2023-06-14T02:15:05;96131.85;;;15.00;41.08
79465;BME280;68932;47.410;8.232;2023-06-14T02:17:34;96133.91;;;14.97;41.28
79465;BME280;68932;47.410;8.232;2023-06-14T02:20:02;96140.27;;;14.93;41.28
79465;BME280;68932;47.410;8.232;2023-06-14T02:22:31;96139.54;;;14.90;41.20
79465;BME280;68932;47.410;8.232;2023-06-14T02:24:59;96140.23;;;14.88;41.15
79465;BME280;68932;47.410;8.232;2023-06-14T02:27:27;96136.00;;;14.86;41.43
79465;BME280;68932;47.410;8.232;2023-06-14T02:29:55;96137.08;;;14.85;41.25
79465;BME280;68932;47.410;8.232;2023-06-14T02:32:24;96137.84;;;14.82;41.46
79465;BME280;68932;47.410;8.232;2023-06-14T02:34:52;96141.78;;;14.79;41.15
79465;BME280;68932;47.410;8.232;2023-06-14T02:37:20;96144.77;;;14.77;41.35
79465;BME280;68932;47.410;8.232;2023-06-14T02:39:49;96144.64;;;14.75;41.26
79465;BME280;68932;47.410;8.232;2023-06-14T02:42:17;96142.98;;;14.72;41.32
79465;BME280;68932;47.410;8.232;2023-06-14T02:44:45;96139.33;;;14.70;41.43
79465;BME280;68932;47.410;8.232;2023-06-14T02:47:14;96138.55;;;14.69;41.15
79465;BME280;68932;47.410;8.232;2023-06-14T02:49:42;96139.56;;;14.67;41.19
79465;BME280;68932;47.410;8.232;2023-06-14T02:52:10;96142.02;;;14.66;41.25
79465;BME280;68932;47.410;8.232;2023-06-14T02:54:38;96143.64;;;14.64;41.09
79465;BME280;68932;47.410;8.232;2023-06-14T02:57:07;96143.59;;;14.62;41.06
79465;BME280;68932;47.410;8.232;2023-06-14T02:59:36;96143.98;;;14.62;41.08
79465;BME280;68932;47.410;8.232;2023-06-14T03:02:04;96143.69;;;14.61;41.27
79465;BME280;68932;47.410;8.232;2023-06-14T03:04:33;96147.75;;;14.59;41.55
79465;BME280;68932;47.410;8.232;2023-06-14T03:07:01;96152.13;;;14.56;41.48
79465;BME280;68932;47.410;8.232;2023-06-14T03:09:30;96152.46;;;14.54;41.44
79465;BME280;68932;47.410;8.232;2023-06-14T03:11:59;96156.86;;;14.52;41.54
79465;BME280;68932;47.410;8.232;2023-06-14T03:14:27;96155.39;;;14.51;41.59
79465;BME280;68932;47.410;8.232;2023-06-14T03:16:55;96156.02;;;14.50;41.24
79465;BME280;68932;47.410;8.232;2023-06-14T03:19:24;96160.66;;;14.49;41.55
79465;BME280;68932;47.410;8.232;2023-06-14T03:21:52;96158.41;;;14.47;41.78
79465;BME280;68932;47.410;8.232;2023-06-14T03:24:20;96167.75;;;14.45;41.42
79465;BME280;68932;47.410;8.232;2023-06-14T03:26:48;96169.04;;;14.45;41.92
79465;BME280;68932;47.410;8.232;2023-06-14T03:29:17;96173.02;;;14.44;41.94
79465;BME280;68932;47.410;8.232;2023-06-14T03:32:00;96172.54;;;14.43;42.06
79465;BME280;68932;47.410;8.232;2023-06-14T03:34:29;96172.65;;;14.42;42.07
79465;BME280;68932;47.410;8.232;2023-06-14T03:36:57;96175.41;;;14.41;42.03
79465;BME280;68932;47.410;8.232;2023-06-14T03:39:25;96177.06;;;14.40;41.96
79465;BME280;68932;47.410;8.232;2023-06-14T03:41:54;96180.08;;;14.38;42.55
79465;BME280;68932;47.410;8.232;2023-06-14T03:44:22;96177.48;;;14.35;42.45
79465;BME280;68932;47.410;8.232;2023-06-14T03:46:50;96177.17;;;14.33;42.54
79465;BME280;68932;47.410;8.232;2023-06-14T03:49:18;96180.90;;;14.33;42.89
79465;BME280;68932;47.410;8.232;2023-06-14T03:51:46;96181.23;;;14.33;42.93
79465;BME280;68932;47.410;8.232;2023-06-14T03:54:15;96185.35;;;14.32;42.59
79465;BME280;68932;47.410;8.232;2023-06-14T03:56:43;96187.02;;;14.31;42.70
79465;BME280;68932;47.410;8.232;2023-06-14T03:59:11;96191.09;;;14.31;42.88
79465;BME280;68932;47.410;8.232;2023-06-14T04:01:40;96193.19;;;14.31;42.68
79465;BME280;68932;47.410;8.232;2023-06-14T04:04:08;96190.60;;;14.32;42.70
79465;BME280;68932;47.410;8.232;2023-06-14T04:06:36;96191.16;;;14.34;42.54
79465;BME280;68932;47.410;8.232;2023-06-14T04:09:04;96193.59;;;14.36;42.89
79465;BME280;68932;47.410;8.232;2023-06-14T04:11:33;96194.82;;;14.41;43.16
79465;BME280;68932;47.410;8.232;2023-06-14T04:14:01;96199.42;;;14.44;43.50
79465;BME280;68932;47.410;8.232;2023-06-14T04:16:30;96199.06;;;14.48;43.30
79465;BME280;68932;47.410;8.232;2023-06-14T04:18:58;96199.89;;;14.52;42.84
79465;BME280;68932;47.410;8.232;2023-06-14T04:21:26;96202.09;;;14.57;43.27
79465;BME280;68932;47.410;8.232;2023-06-14T04:23:54;96207.95;;;14.62;43.21
79465;BME280;68932;47.410;8.232;2023-06-14T04:26:23;96209.40;;;14.67;42.80
79465;BME280;68932;47.410;8.232;2023-06-14T04:28:51;96211.94;;;14.74;42.79
79465;BME280;68932;47.410;8.232;2023-06-14T04:31:19;96218.68;;;14.82;43.19
79465;BME280;68932;47.410;8.232;2023-06-14T04:33:48;96219.62;;;14.88;43.46
79465;BME280;68932;47.410;8.232;2023-06-14T04:36:16;96216.14;;;14.95;43.39
79465;BME280;68932;47.410;8.232;2023-06-14T04:38:44;96217.31;;;15.01;43.14
79465;BME280;68932;47.410;8.232;2023-06-14T04:41:13;96220.14;;;15.08;43.41
79465;BME280;68932;47.410;8.232;2023-06-14T04:43:41;96221.05;;;15.15;43.75
79465;BME280;68932;47.410;8.232;2023-06-14T04:46:09;96222.29;;;15.23;43.49
79465;BME280;68932;47.410;8.232;2023-06-14T04:48:39;96226.17;;;15.30;43.07
79465;BME280;68932;47.410;8.232;2023-06-14T04:51:07;96231.92;;;15.38;43.35
79465;BME280;68932;47.410;8.232;2023-06-14T04:53:36;96232.67;;;15.47;43.34
79465;BME280;68932;47.410;8.232;2023-06-14T04:56:05;96239.28;;;15.55;42.58
79465;BME280;68932;47.410;8.232;2023-06-14T04:58:33;96237.78;;;15.64;43.02
79465;BME280;68932;47.410;8.232;2023-06-14T05:01:01;96241.20;;;15.72;43.92
79465;BME280;68932;47.410;8.232;2023-06-14T05:03:29;96241.14;;;15.80;43.17
79465;BME280;68932;47.410;8.232;2023-06-14T05:05:58;96242.20;;;15.89;42.41
79465;BME280;68932;47.410;8.232;2023-06-14T05:08:26;96249.27;;;16.00;42.58
79465;BME280;68932;47.410;8.232;2023-06-14T05:10:54;96248.84;;;16.11;42.27
79465;BME280;68932;47.410;8.232;2023-06-14T05:13:23;96251.19;;;16.23;41.76
79465;BME280;68932;47.410;8.232;2023-06-14T05:15:51;96246.55;;;16.36;41.66
79465;BME280;68932;47.410;8.232;2023-06-14T05:18:19;96247.83;;;16.50;41.95
79465;BME280;68932;47.410;8.232;2023-06-14T05:20:47;96248.92;;;16.65;41.79
79465;BME280;68932;47.410;8.232;2023-06-14T05:23:16;96251.20;;;16.81;41.73
79465;BME280;68932;47.410;8.232;2023-06-14T05:25:45;96250.66;;;16.96;41.48
79465;BME280;68932;47.410;8.232;2023-06-14T05:28:13;96252.52;;;17.13;40.94
79465;BME280;68932;47.410;8.232;2023-06-14T05:30:41;96249.06;;;17.29;41.71
79465;BME280;68932;47.410;8.232;2023-06-14T05:33:10;96254.90;;;17.46;40.45
79465;BME280;68932;47.410;8.232;2023-06-14T05:35:38;96257.23;;;17.63;39.64
79465;BME280;68932;47.410;8.232;2023-06-14T05:38:06;96257.23;;;17.79;39.17
79465;BME280;68932;47.410;8.232;2023-06-14T05:40:35;96258.25;;;17.93;38.75
79465;BME280;68932;47.410;8.232;2023-06-14T05:43:03;96259.19;;;18.09;38.76
79465;BME280;68932;47.410;8.232;2023-06-14T05:45:31;96263.43;;;18.24;38.79
79465;BME280;68932;47.410;8.232;2023-06-14T05:47:59;96265.89;;;18.39;38.46
79465;BME280;68932;47.410;8.232;2023-06-14T05:50:28;96265.08;;;18.55;38.40
79465;BME280;68932;47.410;8.232;2023-06-14T05:52:56;96267.22;;;18.68;37.90
79465;BME280;68932;47.410;8.232;2023-06-14T05:55:24;96270.81;;;18.79;37.65
79465;BME280;68932;47.410;8.232;2023-06-14T05:57:53;96274.39;;;18.92;37.66
79465;BME280;68932;47.410;8.232;2023-06-14T06:00:22;96273.85;;;19.03;36.66
79465;BME280;68932;47.410;8.232;2023-06-14T06:02:50;96275.07;;;19.11;36.40
79465;BME280;68932;47.410;8.232;2023-06-14T06:05:19;96272.98;;;19.19;36.16
79465;BME280;68932;47.410;8.232;2023-06-14T06:07:47;96275.31;;;19.28;35.70
79465;BME280;68932;47.410;8.232;2023-06-14T06:10:16;96274.27;;;19.40;35.67
79465;BME280;68932;47.410;8.232;2023-06-14T06:12:44;96278.80;;;19.52;35.63
79465;BME280;68932;47.410;8.232;2023-06-14T06:15:13;96276.16;;;19.60;35.16
79465;BME280;68932;47.410;8.232;2023-06-14T06:17:41;96278.91;;;19.61;34.92
79465;BME280;68932;47.410;8.232;2023-06-14T06:20:11;96283.13;;;19.71;35.31
79465;BME280;68932;47.410;8.232;2023-06-14T06:22:39;96288.28;;;19.82;35.38
79465;BME280;68932;47.410;8.232;2023-06-14T06:25:09;96290.95;;;19.88;35.43
79465;BME280;68932;47.410;8.232;2023-06-14T06:27:37;96294.60;;;19.93;35.73
79465;BME280;68932;47.410;8.232;2023-06-14T06:30:07;96296.77;;;20.05;36.64
79465;BME280;68932;47.410;8.232;2023-06-14T06:32:36;96293.02;;;20.18;36.71
79465;BME280;68932;47.410;8.232;2023-06-14T06:35:05;96298.35;;;20.32;36.19
79465;BME280;68932;47.410;8.232;2023-06-14T06:37:33;96296.98;;;20.45;35.59
79465;BME280;68932;47.410;8.232;2023-06-14T06:40:02;96293.01;;;20.53;35.32
79465;BME280;68932;47.410;8.232;2023-06-14T06:42:30;96291.38;;;20.60;35.64
79465;BME280;68932;47.410;8.232;2023-06-14T06:44:58;96293.81;;;20.71;36.19
79465;BME280;68932;47.410;8.232;2023-06-14T06:47:27;96291.86;;;20.80;35.66
79465;BME280;68932;47.410;8.232;2023-06-14T06:49:55;96290.44;;;20.86;35.24
79465;BME280;68932;47.410;8.232;2023-06-14T06:52:23;96293.41;;;20.90;35.18
79465;BME280;68932;47.410;8.232;2023-06-14T06:54:51;96294.92;;;20.93;34.38
79465;BME280;68932;47.410;8.232;2023-06-14T06:57:20;96295.75;;;20.92;34.02
79465;BME280;68932;47.410;8.232;2023-06-14T06:59:48;96295.86;;;20.87;33.92
79465;BME280;68932;47.410;8.232;2023-06-14T07:02:16;96299.80;;;20.81;33.39
79465;BME280;68932;47.410;8.232;2023-06-14T07:04:45;96303.39;;;20.79;33.92
79465;BME280;68932;47.410;8.232;2023-06-14T07:07:13;96302.19;;;20.86;33.51
79465;BME280;68932;47.410;8.232;2023-06-14T07:09:41;96305.27;;;20.92;32.61
79465;BME280;68932;47.410;8.232;2023-06-14T07:12:10;96307.83;;;20.92;31.86
79465;BME280;68932;47.410;8.232;2023-06-14T07:14:38;96309.23;;;20.93;31.99
79465;BME280;68932;47.410;8.232;2023-06-14T07:17:07;96310.23;;;20.96;31.81
79465;BME280;68932;47.410;8.232;2023-06-14T07:19:35;96313.30;;;21.00;31.90
79465;BME280;68932;47.410;8.232;2023-06-14T07:22:04;96312.73;;;21.07;32.20
79465;BME280;68932;47.410;8.232;2023-06-14T07:24:32;96315.24;;;21.12;31.93
79465;BME280;68932;47.410;8.232;2023-06-14T07:27:00;96315.65;;;21.18;32.32
79465;BME280;68932;47.410;8.232;2023-06-14T07:29:29;96315.48;;;21.21;32.34
79465;BME280;68932;47.410;8.232;2023-06-14T07:31:57;96312.09;;;21.23;32.42
79465;BME280;68932;47.410;8.232;2023-06-14T07:34:25;96313.18;;;21.24;31.88
79465;BME280;68932;47.410;8.232;2023-06-14T07:36:54;96312.71;;;21.28;31.92
79465;BME280;68932;47.410;8.232;2023-06-14T07:39:22;96319.05;;;21.34;32.00
79465;BME280;68932;47.410;8.232;2023-06-14T07:41:50;96315.68;;;21.40;31.95
79465;BME280;68932;47.410;8.232;2023-06-14T07:44:18;96313.89;;;21.46;32.00
79465;BME280;68932;47.410;8.232;2023-06-14T07:46:47;96314.72;;;21.53;31.72
79465;BME280;68932;47.410;8.232;2023-06-14T07:49:15;96315.88;;;21.60;31.58
79465;BME280;68932;47.410;8.232;2023-06-14T07:51:43;96317.39;;;21.59;30.88
79465;BME280;68932;47.410;8.232;2023-06-14T07:54:11;96322.80;;;21.56;31.07
79465;BME280;68932;47.410;8.232;2023-06-14T07:56:40;96321.92;;;21.55;31.01
79465;BME280;68932;47.410;8.232;2023-06-14T07:59:08;96321.18;;;21.56;31.15
79465;BME280;68932;47.410;8.232;2023-06-14T08:01:36;96317.30;;;21.58;31.09
79465;BME280;68932;47.410;8.232;2023-06-14T08:04:05;96317.84;;;21.65;31.07
79465;BME280;68932;47.410;8.232;2023-06-14T08:06:34;96320.20;;;21.72;31.36
79465;BME280;68932;47.410;8.232;2023-06-14T08:09:02;96315.56;;;21.74;31.04
79465;BME280;68932;47.410;8.232;2023-06-14T08:11:31;96319.08;;;21.76;31.67
79465;BME280;68932;47.410;8.232;2023-06-14T08:13:59;96318.27;;;21.84;31.71
79465;BME280;68932;47.410;8.232;2023-06-14T08:16:27;96322.77;;;21.88;31.27
79465;BME280;68932;47.410;8.232;2023-06-14T08:18:56;96320.28;;;21.94;31.57
79465;BME280;68932;47.410;8.232;2023-06-14T08:21:24;96322.29;;;22.04;31.40
79465;BME280;68932;47.410;8.232;2023-06-14T08:23:52;96322.43;;;22.12;31.23
79465;BME280;68932;47.410;8.232;2023-06-14T08:26:21;96318.98;;;22.22;30.98
79465;BME280;68932;47.410;8.232;2023-06-14T08:28:49;96326.70;;;22.32;30.70
79465;BME280;68932;47.410;8.232;2023-06-14T08:31:17;96330.75;;;22.41;30.61
79465;BME280;68932;47.410;8.232;2023-06-14T08:33:45;96325.88;;;22.50;30.95
79465;BME280;68932;47.410;8.232;2023-06-14T08:36:14;96327.71;;;22.57;30.94
79465;BME280;68932;47.410;8.232;2023-06-14T08:38:42;96328.20;;;22.65;30.99
79465;BME280;68932;47.410;8.232;2023-06-14T08:41:13;96328.06;;;22.72;30.49
79465;BME280;68932;47.410;8.232;2023-06-14T08:43:48;96329.41;;;22.78;30.41
79465;BME280;68932;47.410;8.232;2023-06-14T08:46:18;96330.16;;;22.81;30.31
79465;BME280;68932;47.410;8.232;2023-06-14T08:48:47;96332.84;;;22.87;30.26
79465;BME280;68932;47.410;8.232;2023-06-14T08:51:19;96333.41;;;22.95;30.56
79465;BME280;68932;47.410;8.232;2023-06-14T08:53:48;96333.88;;;23.04;30.23
79465;BME280;68932;47.410;8.232;2023-06-14T08:56:20;96332.85;;;23.11;29.64
79465;BME280;68932;47.410;8.232;2023-06-14T08:58:50;96334.88;;;23.13;29.68
79465;BME280;68932;47.410;8.232;2023-06-14T09:01:19;96332.96;;;23.19;30.07
79465;BME280;68932;47.410;8.232;2023-06-14T09:03:47;96331.40;;;23.24;30.25
79465;BME280;68932;47.410;8.232;2023-06-14T09:06:16;96332.41;;;23.34;29.70
79465;BME280;68932;47.410;8.232;2023-06-14T09:08:46;96331.71;;;23.40;29.14
79465;BME280;68932;47.410;8.232;2023-06-14T09:11:16;96334.69;;;23.40;28.42
79465;BME280;68932;47.410;8.232;2023-06-14T09:13:44;96338.32;;;23.41;28.91
79465;BME280;68932;47.410;8.232;2023-06-14T09:16:13;96335.27;;;23.48;28.60
79465;BME280;68932;47.410;8.232;2023-06-14T09:18:43;96330.60;;;23.48;28.14
79465;BME280;68932;47.410;8.232;2023-06-14T09:21:12;96330.15;;;23.50;28.46
79465;BME280;68932;47.410;8.232;2023-06-14T09:23:41;96323.05;;;23.57;28.62
79465;BME280;68932;47.410;8.232;2023-06-14T09:26:11;96328.82;;;23.64;28.45
79465;BME280;68932;47.410;8.232;2023-06-14T09:28:42;96333.06;;;23.68;28.44
79465;BME280;68932;47.410;8.232;2023-06-14T09:31:11;96335.84;;;23.73;28.55
79465;BME280;68932;47.410;8.232;2023-06-14T09:33:40;96335.81;;;23.79;28.37
79465;BME280;68932;47.410;8.232;2023-06-14T09:36:14;96339.80;;;23.84;28.12
79465;BME280;68932;47.410;8.232;2023-06-14T09:38:43;96341.99;;;23.86;27.36
79465;BME280;68932;47.410;8.232;2023-06-14T09:41:19;96342.20;;;23.86;27.54
79465;BME280;68932;47.410;8.232;2023-06-14T09:43:48;96338.22;;;23.90;27.98
79465;BME280;68932;47.410;8.232;2023-06-14T09:46:17;96341.88;;;23.96;27.58
79465;BME280;68932;47.410;8.232;2023-06-14T09:48:46;96345.48;;;23.97;27.54
79465;BME280;68932;47.410;8.232;2023-06-14T09:51:16;96342.32;;;23.99;27.84
79465;BME280;68932;47.410;8.232;2023-06-14T09:53:48;96344.59;;;24.04;27.79
79465;BME280;68932;47.410;8.232;2023-06-14T09:56:20;96343.29;;;24.09;27.72
79465;BME280;68932;47.410;8.232;2023-06-14T09:58:51;96344.51;;;24.18;27.74
79465;BME280;68932;47.410;8.232;2023-06-14T10:01:20;96341.44;;;24.26;27.65
79465;BME280;68932;47.410;8.232;2023-06-14T10:03:51;96342.27;;;24.26;27.13
79465;BME280;68932;47.410;8.232;2023-06-14T10:06:23;96334.63;;;24.27;27.07
79465;BME280;68932;47.410;8.232;2023-06-14T10:08:56;96335.41;;;24.30;27.72
79465;BME280;68932;47.410;8.232;2023-06-14T10:11:27;96332.81;;;24.33;27.31
79465;BME280;68932;47.410;8.232;2023-06-14T10:13:56;96324.73;;;24.40;27.71
79465;BME280;68932;47.410;8.232;2023-06-14T10:16:30;96331.52;;;24.44;26.95
79465;BME280;68932;47.410;8.232;2023-06-14T10:19:05;96329.27;;;24.44;27.11
79465;BME280;68932;47.410;8.232;2023-06-14T10:21:46;96326.48;;;24.47;27.18
79465;BME280;68932;47.410;8.232;2023-06-14T10:24:19;96326.92;;;24.53;27.06
79465;BME280;68932;47.410;8.232;2023-06-14T10:26:56;96317.76;;;24.58;26.90
79465;BME280;68932;47.410;8.232;2023-06-14T10:29:23;96321.19;;;24.63;27.37
79465;BME280;68932;47.410;8.232;2023-06-14T10:31:57;96323.02;;;24.73;27.43
79465;BME280;68932;47.410;8.232;2023-06-14T10:34:26;96320.02;;;24.85;27.40
79465;BME280;68932;47.410;8.232;2023-06-14T10:37:06;96317.96;;;24.95;27.39
79465;BME280;68932;47.410;8.232;2023-06-14T10:39:39;96322.05;;;25.04;27.09
79465;BME280;68932;47.410;8.232;2023-06-14T10:42:09;96327.64;;;25.12;26.93
79465;BME280;68932;47.410;8.232;2023-06-14T10:44:44;96321.55;;;25.19;25.50
79465;BME280;68932;47.410;8.232;2023-06-14T10:47:23;96320.96;;;25.15;25.11
79465;BME280;68932;47.410;8.232;2023-06-14T10:49:53;96313.31;;;25.10;25.35
79465;BME280;68932;47.410;8.232;2023-06-14T10:52:29;96315.17;;;25.11;25.51
79465;BME280;68932;47.410;8.232;2023-06-14T10:55:09;96312.82;;;25.15;25.49
79465;BME280;68932;47.410;8.232;2023-06-14T10:57:39;96311.36;;;25.17;25.91
79465;BME280;68932;47.410;8.232;2023-06-14T11:00:09;96309.67;;;25.22;25.80
79465;BME280;68932;47.410;8.232;2023-06-14T11:05:49;96310.00;;;25.30;25.20
79465;BME280;68932;47.410;8.232;2023-06-14T11:11:23;96307.45;;;25.39;25.45
79465;BME280;68932;47.410;8.232;2023-06-14T11:13:52;96312.57;;;25.45;25.30
79465;BME280;68932;47.410;8.232;2023-06-14T11:16:21;96309.86;;;25.53;25.38
79465;BME280;68932;47.410;8.232;2023-06-14T11:18:54;96310.10;;;25.60;25.28
79465;BME280;68932;47.410;8.232;2023-06-14T11:21:23;96309.30;;;25.64;24.70
79465;BME280;68932;47.410;8.232;2023-06-14T11:23:52;96303.08;;;25.65;24.61
79465;BME280;68932;47.410;8.232;2023-06-14T11:26:27;96300.75;;;25.66;25.54
79465;BME280;68932;47.410;8.232;2023-06-14T11:28:58;96303.45;;;25.74;24.91
79465;BME280;68932;47.410;8.232;2023-06-14T11:31:27;96303.48;;;25.76;24.49
79465;BME280;68932;47.410;8.232;2023-06-14T11:33:56;96299.84;;;25.78;24.60
79465;BME280;68932;47.410;8.232;2023-06-14T11:36:27;96300.41;;;25.79;24.35
79465;BME280;68932;47.410;8.232;2023-06-14T11:39:00;96294.67;;;25.81;24.46
79465;BME280;68932;47.410;8.232;2023-06-14T11:41:36;96285.55;;;25.85;24.01
79465;BME280;68932;47.410;8.232;2023-06-14T11:44:05;96287.28;;;25.91;24.59
79465;BME280;68932;47.410;8.232;2023-06-14T11:46:34;96288.20;;;25.98;24.18
79465;BME280;68932;47.410;8.232;2023-06-14T11:49:03;96289.05;;;26.05;24.29
79465;BME280;68932;47.410;8.232;2023-06-14T11:51:32;96290.50;;;26.06;24.26
79465;BME280;68932;47.410;8.232;2023-06-14T11:54:00;96284.11;;;26.07;24.08
79465;BME280;68932;47.410;8.232;2023-06-14T11:56:28;96284.02;;;26.08;23.85
79465;BME280;68932;47.410;8.232;2023-06-14T11:58:57;96287.51;;;26.07;23.93
79465;BME280;68932;47.410;8.232;2023-06-14T12:01:25;96285.27;;;26.11;24.17
79465;BME280;68932;47.410;8.232;2023-06-14T12:03:55;96283.30;;;26.21;24.33
79465;BME280;68932;47.410;8.232;2023-06-14T12:06:29;96278.87;;;26.35;24.16
79465;BME280;68932;47.410;8.232;2023-06-14T12:08:58;96277.70;;;26.46;23.88
79465;BME280;68932;47.410;8.232;2023-06-14T12:11:31;96278.23;;;26.56;23.87
79465;BME280;68932;47.410;8.232;2023-06-14T12:14:00;96276.27;;;26.66;23.88
79465;BME280;68932;47.410;8.232;2023-06-14T12:16:33;96278.45;;;26.79;24.04
79465;BME280;68932;47.410;8.232;2023-06-14T12:19:09;96278.56;;;26.89;24.19
79465;BME280;68932;47.410;8.232;2023-06-14T12:21:38;96283.59;;;26.93;23.20
79465;BME280;68932;47.410;8.232;2023-06-14T12:24:07;96285.66;;;26.89;22.66
79465;BME280;68932;47.410;8.232;2023-06-14T12:26:39;96281.96;;;26.85;22.43
79465;BME280;68932;47.410;8.232;2023-06-14T12:29:08;96280.67;;;26.86;23.15
79465;BME280;68932;47.410;8.232;2023-06-14T12:31:36;96283.73;;;26.91;23.31
79465;BME280;68932;47.410;8.232;2023-06-14T12:34:05;96280.89;;;26.98;23.45
79465;BME280;68932;47.410;8.232;2023-06-14T12:36:33;96282.23;;;27.06;23.91
79465;BME280;68932;47.410;8.232;2023-06-14T12:39:01;96279.61;;;27.15;23.53
79465;BME280;68932;47.410;8.232;2023-06-14T12:41:30;96280.93;;;27.16;23.63
79465;BME280;68932;47.410;8.232;2023-06-14T12:43:58;96283.91;;;27.21;23.52
79465;BME280;68932;47.410;8.232;2023-06-14T12:46:26;96280.75;;;27.23;22.67
79465;BME280;68932;47.410;8.232;2023-06-14T12:48:55;96278.58;;;27.26;23.34
79465;BME280;68932;47.410;8.232;2023-06-14T12:51:23;96277.61;;;27.33;23.62
79465;BME280;68932;47.410;8.232;2023-06-14T12:53:51;96280.94;;;27.38;23.04
79465;BME280;68932;47.410;8.232;2023-06-14T12:56:19;96283.59;;;27.38;23.04
79465;BME280;68932;47.410;8.232;2023-06-14T12:58:48;96285.65;;;27.36;23.07
79465;BME280;68932;47.410;8.232;2023-06-14T13:01:16;96279.81;;;27.35;23.18
79465;BME280;68932;47.410;8.232;2023-06-14T13:03:44;96280.50;;;27.39;23.28
79465;BME280;68932;47.410;8.232;2023-06-14T13:06:13;96283.10;;;27.45;23.26
79465;BME280;68932;47.410;8.232;2023-06-14T13:08:41;96288.42;;;27.52;23.86
79465;BME280;68932;47.410;8.232;2023-06-14T13:11:09;96290.67;;;27.64;24.00
79465;BME280;68932;47.410;8.232;2023-06-14T13:13:38;96287.10;;;27.79;23.49
79465;BME280;68932;47.410;8.232;2023-06-14T13:16:06;96280.88;;;27.94;23.71